Startpagina
METAR-TAF:

METAR-TAF

Vliegvelden :

Ndjamena, Tsjaad

breedte: 12-08N, lengte: 015-02E, hoogte: 295 m

Actueel weer

Dit bericht is 43 minuten geleden gemaakt, om 11:00 UTC
Wind 8 kt uit het noorden, variërend tussen het noorden en het oosten
Temperatuur 34°C
Vochtigheid 15%
Druk 1012 hPa
Zicht 10 km of meer
geen wolken onder 1500 m en geen cumulonimbus

METAR: FTTJ 161100Z 35008KT 350V090 CAVOK 34/04 Q1012 NOSIG

Tijdstip: 12:43 (11:43 UTC)

Verwachting

Dit bericht is 43 minuten geleden gemaakt, om 11:00 UTC
Verwachting geldig van 16 om 12 UTC tot 17 om 18 UTC
Wind 10 kt uit het noorden
Zicht 10 km of meer
geen wolken onder 1500 m en geen cumulonimbus
Tijdelijke
van 16 om 17 UTC tot 16 om 20 UTC
Zicht: 4000 m
Heiigheid
Tijdelijke
van 17 om 04 UTC tot 17 om 08 UTC
Zicht: 4000 m
Heiigheid

TAF: FTTJ 161100Z 1612/1718 36010KT CAVOK TEMPO 1617/1620 4000 HZ TEMPO 1704/1708 4000 HZ

Waarnemingen en weersverwachtingen van meer dan 4000 vliegvelden (METAR en TAF).

De beschikbare stations zijn de gele en rode punten op de kaart.

Ga met uw muis naar het station om de naam te zien.

Klik dan om waarnemingen en weersverwachtingen te zien.

kaart wijzigen: klik op de groene knoppen met een zwart kruis om in te zoomen, op de groene knop met een streepje om uit te zoomen of op de groene pijlen voor aangrenzende kaarten.


METAR-TAF: